Time;durP1;ratioP1;P1;durP2;ratioP2;P2;SDS_P1;SDS_P2;PMS_P1;PMS_P2;Temp;Humidity;BMP_temperature;BMP_pressure;BME280_temperature;BME280_humidity;BME280_pressure;Samples;Min_cycle;Max_cycle;Signal;HPM_P1;HPM_P2
2023/12/05 00:00:05;;;;;;;;;;;1.40;99.90;;;;;;5022247;28;19913;-75
2023/12/05 00:02:51;;;;;;;;;;;1.40;99.90;;;;;;5003605;28;19963;-75
2023/12/05 00:05:37;;;;;;;;;;;1.40;99.90;;;;;;5020074;28;19925;-75
2023/12/05 00:08:23;;;;;;;;;;;1.40;99.90;;;;;;5030040;28;20554;-75
2023/12/05 00:11:09;;;;;;;;;;;1.30;99.90;;;;;;5026444;28;19917;-75
2023/12/05 00:13:55;;;;;;;;;;;1.40;99.90;;;;;;5021078;28;19920;-75
2023/12/05 00:16:41;;;;;;;;;;;1.30;99.90;;;;;;5008597;28;19959;-75
2023/12/05 00:19:27;;;;;;;;;;;1.30;99.90;;;;;;4994210;28;19914;-75
2023/12/05 00:22:13;;;;;;;;;;;1.30;99.90;;;;;;5015835;28;19966;-75
2023/12/05 00:24:59;;;;;;;;;;;1.30;99.90;;;;;;5025175;28;19917;-75
2023/12/05 00:27:45;;;;;;;;;;;1.40;99.90;;;;;;5020168;28;19974;-75
2023/12/05 00:30:31;;;;;;;;;;;1.40;99.90;;;;;;5010183;28;19971;-75
2023/12/05 00:33:17;;;;;;;;;;;1.30;99.90;;;;;;5001159;28;19932;-75
2023/12/05 00:36:05;;;;;;;;;;;1.30;99.90;;;;;;5001112;28;19923;-75
2023/12/05 00:38:50;;;;;;;;;;;1.40;99.90;;;;;;5023282;28;19910;-75
2023/12/05 00:41:38;;;;;;;;;;;1.40;99.90;;;;;;5016124;28;20005;-75
2023/12/05 00:44:25;;;;;;;;;;;1.40;99.90;;;;;;4989975;28;20211;-75
2023/12/05 00:47:12;;;;;;;;;;;1.30;99.90;;;;;;5009371;28;19909;-74
2023/12/05 00:49:58;;;;;;;;;;;1.30;99.90;;;;;;5015629;28;19909;-75
2023/12/05 00:52:44;;;;;;;;;;;1.30;99.90;;;;;;5006700;28;19992;-75
2023/12/05 00:55:30;;;;;;;;;;;1.30;99.90;;;;;;5016594;28;20338;-75
2023/12/05 00:58:16;;;;;;;;;;;1.30;99.90;;;;;;5010688;28;19914;-74
2023/12/05 01:01:02;;;;;;;;;;;1.40;99.90;;;;;;5016554;28;19924;-75
2023/12/05 01:03:51;;;;;;;;;;;1.30;99.90;;;;;;5012331;28;19917;-75
2023/12/05 01:06:37;;;;;;;;;;;1.30;99.90;;;;;;5009924;28;19996;-75
2023/12/05 01:09:24;;;;;;;;;;;1.30;99.90;;;;;;5014914;28;19913;-74
2023/12/05 01:12:14;;;;;;;;;;;1.30;99.90;;;;;;5022798;28;20000;-75
2023/12/05 01:15:02;;;;;;;;;;;1.30;99.90;;;;;;5008970;28;19913;-75
2023/12/05 01:17:48;;;;;;;;;;;1.30;99.90;;;;;;5012358;28;20215;-75
2023/12/05 01:20:35;;;;;;;;;;;1.30;99.90;;;;;;5001320;28;19995;-75
2023/12/05 01:23:21;;;;;;;;;;;1.30;99.90;;;;;;5010507;28;19917;-75
2023/12/05 01:26:07;;;;;;;;;;;1.30;99.90;;;;;;5011537;28;19938;-75
2023/12/05 01:28:54;;;;;;;;;;;1.30;99.90;;;;;;5010062;28;19916;-75
2023/12/05 01:31:40;;;;;;;;;;;1.30;99.90;;;;;;5018782;28;20265;-75
2023/12/05 01:34:26;;;;;;;;;;;1.30;99.90;;;;;;5008457;28;20658;-75
2023/12/05 01:37:12;;;;;;;;;;;1.30;99.90;;;;;;5004924;28;20333;-75
2023/12/05 01:39:59;;;;;;;;;;;1.30;99.90;;;;;;5019702;28;19916;-75
2023/12/05 01:42:45;;;;;;;;;;;1.30;99.90;;;;;;5017305;28;20004;-75
2023/12/05 01:45:31;;;;;;;;;;;1.30;99.90;;;;;;4990744;28;19971;-75
2023/12/05 01:48:17;;;;;;;;;;;1.30;99.90;;;;;;5003612;28;19918;-74
2023/12/05 01:51:03;;;;;;;;;;;1.30;99.90;;;;;;5018016;28;19914;-75
2023/12/05 01:53:49;;;;;;;;;;;1.30;99.90;;;;;;5018923;28;19917;-74
2023/12/05 01:56:34;;;;;;;;;;;1.30;99.90;;;;;;4998654;28;19921;-75
2023/12/05 01:59:22;;;;;;;;;;;1.30;99.90;;;;;;5017058;28;20005;-75
2023/12/05 02:02:08;;;;;;;;;;;1.30;99.90;;;;;;5009181;28;19910;-75
2023/12/05 02:04:53;;;;;;;;;;;1.30;99.90;;;;;;4981640;28;19987;-75
2023/12/05 02:07:40;;;;;;;;;;;1.30;99.90;;;;;;4999158;28;20000;-75
2023/12/05 02:10:26;;;;;;;;;;;1.30;99.90;;;;;;4979251;28;19921;-75
2023/12/05 02:13:13;;;;;;;;;;;1.30;99.90;;;;;;5006365;28;20554;-75
2023/12/05 02:16:04;;;;;;;;;;;1.30;99.90;;;;;;4967573;28;19910;-75
2023/12/05 02:18:53;;;;;;;;;;;1.30;99.90;;;;;;5003615;28;20272;-75
2023/12/05 02:21:39;;;;;;;;;;;1.30;99.90;;;;;;4997373;28;19913;-75
2023/12/05 02:24:31;;;;;;;;;;;1.30;99.90;;;;;;4997443;28;20362;-75
2023/12/05 02:27:24;;;;;;;;;;;1.30;99.90;;;;;;4998465;28;19928;-75
2023/12/05 02:30:11;;;;;;;;;;;1.30;99.90;;;;;;4983498;28;19917;-75
2023/12/05 02:32:57;;;;;;;;;;;1.30;99.90;;;;;;5023972;28;19916;-75
2023/12/05 02:35:43;;;;;;;;;;;1.30;99.90;;;;;;5017925;28;20292;-75
2023/12/05 02:38:30;;;;;;;;;;;1.30;99.90;;;;;;5006373;28;19913;-75
2023/12/05 02:41:20;;;;;;;;;;;1.30;99.90;;;;;;4998289;28;20362;-75
2023/12/05 02:44:11;;;;;;;;;;;1.30;99.90;;;;;;4997679;28;19913;-75
2023/12/05 02:46:56;;;;;;;;;;;1.30;99.90;;;;;;4997982;28;19922;-75
2023/12/05 02:49:42;;;;;;;;;;;1.30;99.90;;;;;;4997157;28;19909;-75
2023/12/05 02:52:28;;;;;;;;;;;1.20;99.90;;;;;;4997674;28;19910;-75
2023/12/05 02:55:14;;;;;;;;;;;1.30;99.90;;;;;;4997581;28;19909;-75
2023/12/05 02:58:01;;;;;;;;;;;1.30;99.90;;;;;;4996615;28;19921;-75
2023/12/05 03:00:48;;;;;;;;;;;1.20;99.90;;;;;;4998430;28;19920;-75
2023/12/05 03:03:34;;;;;;;;;;;1.30;99.90;;;;;;5010671;28;19917;-75
2023/12/05 03:06:20;;;;;;;;;;;1.20;99.90;;;;;;4996936;28;20242;-75
2023/12/05 03:09:06;;;;;;;;;;;1.20;99.90;;;;;;4976408;28;20242;-75
2023/12/05 03:11:52;;;;;;;;;;;1.20;99.90;;;;;;5003248;28;19910;-75
2023/12/05 03:14:39;;;;;;;;;;;1.20;99.90;;;;;;4998696;28;19913;-74
2023/12/05 03:17:25;;;;;;;;;;;1.20;99.90;;;;;;5016811;28;19920;-75
2023/12/05 03:20:11;;;;;;;;;;;1.20;99.90;;;;;;4995389;28;19928;-75
2023/12/05 03:22:57;;;;;;;;;;;1.20;99.90;;;;;;5009701;28;19914;-75
2023/12/05 03:25:43;;;;;;;;;;;1.20;99.90;;;;;;4994769;28;19913;-75
2023/12/05 03:28:29;;;;;;;;;;;1.20;99.90;;;;;;4995249;28;19910;-75
2023/12/05 03:31:15;;;;;;;;;;;1.20;99.90;;;;;;4995515;28;19947;-75
2023/12/05 03:34:01;;;;;;;;;;;1.20;99.90;;;;;;5001960;28;19944;-75
2023/12/05 03:36:47;;;;;;;;;;;1.20;99.90;;;;;;5000905;28;19924;-75
2023/12/05 03:39:33;;;;;;;;;;;1.10;99.90;;;;;;4996143;28;19996;-74
2023/12/05 03:42:19;;;;;;;;;;;1.10;99.90;;;;;;4984873;28;19913;-75
2023/12/05 03:45:05;;;;;;;;;;;1.10;99.90;;;;;;5016644;28;19917;-75
2023/12/05 03:47:51;;;;;;;;;;;1.10;99.90;;;;;;4992947;28;19910;-75
2023/12/05 03:50:39;;;;;;;;;;;1.10;99.90;;;;;;4981957;28;19910;-75
2023/12/05 03:53:24;;;;;;;;;;;1.10;99.90;;;;;;4996602;28;20235;-75
2023/12/05 03:56:10;;;;;;;;;;;1.10;99.90;;;;;;4980222;28;19913;-75
2023/12/05 03:58:56;;;;;;;;;;;1.10;99.90;;;;;;4988830;28;19925;-75
2023/12/05 04:01:43;;;;;;;;;;;1.10;99.90;;;;;;5015670;28;19921;-75
2023/12/05 04:04:28;;;;;;;;;;;1.10;99.90;;;;;;5022248;28;19981;-75
2023/12/05 04:07:14;;;;;;;;;;;1.10;99.90;;;;;;5029858;28;19962;-75
2023/12/05 04:10:02;;;;;;;;;;;1.10;99.90;;;;;;5015527;28;19910;-75
2023/12/05 04:12:48;;;;;;;;;;;1.10;99.90;;;;;;5023876;28;19987;-75
2023/12/05 04:15:34;;;;;;;;;;;1.10;99.90;;;;;;5015963;28;19909;-75
2023/12/05 04:18:20;;;;;;;;;;;1.10;99.90;;;;;;5023546;28;19967;-74
2023/12/05 04:21:06;;;;;;;;;;;1.10;99.90;;;;;;5024116;28;20234;-75
2023/12/05 04:23:52;;;;;;;;;;;1.10;99.90;;;;;;5019004;28;19916;-75
2023/12/05 04:26:38;;;;;;;;;;;1.20;99.90;;;;;;5016783;28;19955;-75
2023/12/05 04:29:24;;;;;;;;;;;1.20;99.90;;;;;;5014800;28;20004;-75
2023/12/05 04:32:10;;;;;;;;;;;1.20;99.90;;;;;;5020269;28;19929;-75
2023/12/05 04:34:57;;;;;;;;;;;1.10;99.90;;;;;;5013895;28;19909;-75
2023/12/05 04:37:43;;;;;;;;;;;1.10;99.90;;;;;;5015381;28;19920;-75
2023/12/05 04:40:29;;;;;;;;;;;1.10;99.90;;;;;;5000105;28;20321;-75
2023/12/05 04:43:16;;;;;;;;;;;1.10;99.90;;;;;;5005460;28;20309;-75
2023/12/05 04:46:02;;;;;;;;;;;1.20;99.90;;;;;;5020975;28;19913;-75
2023/12/05 04:48:48;;;;;;;;;;;1.20;99.90;;;;;;4990319;28;19916;-75
2023/12/05 04:51:34;;;;;;;;;;;1.20;99.90;;;;;;5014446;28;20004;-75
2023/12/05 04:54:20;;;;;;;;;;;1.20;99.90;;;;;;5019701;28;19910;-75
2023/12/05 04:57:06;;;;;;;;;;;1.20;99.90;;;;;;5001263;28;19914;-75
2023/12/05 04:59:52;;;;;;;;;;;1.20;99.90;;;;;;5021680;28;20302;-75
2023/12/05 05:02:38;;;;;;;;;;;1.10;99.90;;;;;;5001809;28;19913;-75
2023/12/05 05:05:24;;;;;;;;;;;1.10;99.90;;;;;;5001612;28;20257;-75
2023/12/05 05:08:11;;;;;;;;;;;1.10;99.90;;;;;;5015105;28;19924;-75
2023/12/05 05:10:57;;;;;;;;;;;1.10;99.90;;;;;;5006081;28;19913;-75
2023/12/05 05:13:43;;;;;;;;;;;1.20;99.90;;;;;;5007504;28;19920;-75
2023/12/05 05:16:29;;;;;;;;;;;1.10;99.90;;;;;;5004490;28;19952;-75
2023/12/05 05:19:15;;;;;;;;;;;1.10;99.90;;;;;;5015890;28;20014;-75
2023/12/05 05:22:01;;;;;;;;;;;1.10;99.90;;;;;;5029567;28;19939;-75
2023/12/05 05:24:47;;;;;;;;;;;1.10;99.90;;;;;;5014171;28;19917;-75
2023/12/05 05:27:33;;;;;;;;;;;1.10;99.90;;;;;;5014260;28;19949;-75
2023/12/05 05:30:18;;;;;;;;;;;1.10;99.90;;;;;;5001271;28;19909;-75
2023/12/05 05:33:04;;;;;;;;;;;1.10;99.90;;;;;;5013826;28;20285;-75
2023/12/05 05:35:50;;;;;;;;;;;1.10;99.90;;;;;;5014246;28;19924;-75
2023/12/05 05:38:36;;;;;;;;;;;1.10;99.90;;;;;;4981808;28;19949;-75
2023/12/05 05:41:22;;;;;;;;;;;1.00;99.90;;;;;;5000615;28;19996;-75
2023/12/05 05:44:08;;;;;;;;;;;1.00;99.90;;;;;;4999506;28;20063;-75
2023/12/05 05:46:54;;;;;;;;;;;1.00;99.90;;;;;;5012795;28;19916;-75
2023/12/05 05:49:42;;;;;;;;;;;1.00;99.90;;;;;;5031763;28;19944;-75
2023/12/05 05:52:28;;;;;;;;;;;1.00;99.90;;;;;;5006370;28;19922;-75
2023/12/05 05:55:13;;;;;;;;;;;1.10;99.90;;;;;;5016854;28;19913;-75
2023/12/05 05:58:00;;;;;;;;;;;1.10;99.90;;;;;;5015143;28;19975;-75
2023/12/05 06:00:46;;;;;;;;;;;1.10;99.90;;;;;;5015965;28;19913;-75
2023/12/05 06:03:32;;;;;;;;;;;1.10;99.90;;;;;;5016119;28;19924;-75
2023/12/05 06:06:17;;;;;;;;;;;1.10;99.90;;;;;;5010388;28;19923;-75
2023/12/05 06:09:04;;;;;;;;;;;1.10;99.90;;;;;;5030430;28;19988;-75
2023/12/05 06:11:50;;;;;;;;;;;1.10;99.90;;;;;;4998744;28;20361;-75
2023/12/05 06:14:38;;;;;;;;;;;1.10;99.90;;;;;;5003298;28;19913;-75
2023/12/05 06:17:25;;;;;;;;;;;1.10;99.90;;;;;;5016215;28;19913;-75
2023/12/05 06:20:11;;;;;;;;;;;1.10;99.90;;;;;;5031399;28;19980;-75
2023/12/05 06:22:57;;;;;;;;;;;1.10;99.90;;;;;;5031089;28;19924;-75
2023/12/05 06:25:43;;;;;;;;;;;1.10;99.90;;;;;;5010598;28;19928;-75
2023/12/05 06:28:29;;;;;;;;;;;1.10;99.90;;;;;;5007303;28;19947;-75
2023/12/05 06:31:15;;;;;;;;;;;1.10;99.90;;;;;;5024286;28;19913;-77
2023/12/05 06:34:01;;;;;;;;;;;1.10;99.90;;;;;;5016775;28;20233;-77
2023/12/05 06:36:47;;;;;;;;;;;1.10;99.90;;;;;;5017876;28;20035;-77
2023/12/05 06:39:33;;;;;;;;;;;1.10;99.90;;;;;;5031133;28;19919;-77
2023/12/05 06:42:20;;;;;;;;;;;1.10;99.90;;;;;;5030922;28;19917;-77
2023/12/05 06:45:06;;;;;;;;;;;1.10;99.90;;;;;;5032839;28;19924;-77
2023/12/05 06:47:52;;;;;;;;;;;1.10;99.90;;;;;;4987621;28;19909;-77
2023/12/05 06:50:38;;;;;;;;;;;1.10;99.90;;;;;;5016547;28;19909;-77
2023/12/05 06:53:24;;;;;;;;;;;1.20;99.90;;;;;;5017961;28;19976;-78
2023/12/05 06:56:10;;;;;;;;;;;1.10;99.90;;;;;;5004031;28;19913;-77
2023/12/05 06:58:56;;;;;;;;;;;1.10;99.90;;;;;;5004189;28;20288;-77
2023/12/05 07:01:42;;;;;;;;;;;1.10;99.90;;;;;;5004147;28;19910;-77
2023/12/05 07:04:28;;;;;;;;;;;1.20;99.90;;;;;;5004246;28;19918;-77
2023/12/05 07:07:16;;;;;;;;;;;1.20;99.90;;;;;;5024144;28;19908;-76
2023/12/05 07:10:02;;;;;;;;;;;1.20;99.90;;;;;;5039146;28;20275;-78
2023/12/05 07:12:48;;;;;;;;;;;1.20;99.90;;;;;;4988336;28;19910;-77
2023/12/05 07:15:34;;;;;;;;;;;1.20;99.90;;;;;;4997533;28;19996;-77
2023/12/05 07:18:20;;;;;;;;;;;1.20;99.90;;;;;;5017157;28;19924;-78
2023/12/05 07:21:08;;;;;;;;;;;1.20;99.90;;;;;;5032866;28;19916;-78
2023/12/05 07:23:54;;;;;;;;;;;1.20;99.90;;;;;;5018276;28;19921;-77
2023/12/05 07:26:40;;;;;;;;;;;1.20;99.90;;;;;;5000964;28;19910;-77
2023/12/05 07:29:26;;;;;;;;;;;1.30;99.90;;;;;;5023694;28;20020;-77
2023/12/05 07:32:12;;;;;;;;;;;1.20;99.90;;;;;;4999020;28;19949;-77
2023/12/05 07:34:58;;;;;;;;;;;1.20;99.90;;;;;;5018456;28;19971;-77
2023/12/05 07:37:44;;;;;;;;;;;1.30;99.90;;;;;;5018899;28;19910;-77
2023/12/05 07:40:30;;;;;;;;;;;1.30;99.90;;;;;;5013970;28;20329;-77
2023/12/05 07:43:16;;;;;;;;;;;1.30;99.90;;;;;;5018691;28;19913;-77
2023/12/05 07:46:04;;;;;;;;;;;1.30;99.90;;;;;;5019382;28;19913;-77
2023/12/05 07:48:50;;;;;;;;;;;1.40;99.90;;;;;;4984970;28;19913;-77
2023/12/05 07:51:37;;;;;;;;;;;1.30;99.90;;;;;;4986282;28;19913;-77
2023/12/05 07:54:23;;;;;;;;;;;1.40;99.90;;;;;;5017791;28;19909;-77
2023/12/05 07:57:09;;;;;;;;;;;1.40;99.90;;;;;;5003535;28;19924;-77
2023/12/05 07:59:56;;;;;;;;;;;1.40;99.90;;;;;;4984107;28;19919;-77
2023/12/05 08:02:45;;;;;;;;;;;1.40;99.90;;;;;;5006813;28;20292;-77
2023/12/05 08:05:33;;;;;;;;;;;1.40;99.90;;;;;;5020522;28;19948;-77
2023/12/05 08:08:19;;;;;;;;;;;1.40;99.90;;;;;;5024807;28;19909;-77
2023/12/05 08:11:05;;;;;;;;;;;1.40;99.90;;;;;;5018563;28;19910;-77
2023/12/05 08:13:52;;;;;;;;;;;1.40;99.90;;;;;;5021769;28;19909;-77
2023/12/05 08:16:39;;;;;;;;;;;1.40;99.90;;;;;;5032065;28;19920;-76
2023/12/05 08:19:25;;;;;;;;;;;1.40;99.90;;;;;;5011200;28;19919;-76
2023/12/05 08:22:11;;;;;;;;;;;1.50;99.90;;;;;;5028495;28;19909;-76
2023/12/05 08:24:57;;;;;;;;;;;1.50;99.90;;;;;;5017595;28;19918;-77
2023/12/05 08:27:43;;;;;;;;;;;1.50;99.90;;;;;;5017469;28;19924;-76
2023/12/05 08:30:30;;;;;;;;;;;1.50;99.90;;;;;;5021992;28;20230;-77
2023/12/05 08:33:16;;;;;;;;;;;1.50;99.90;;;;;;5015465;28;19945;-77
2023/12/05 08:36:02;;;;;;;;;;;1.50;99.90;;;;;;4989590;28;19909;-77
2023/12/05 08:38:48;;;;;;;;;;;1.50;99.90;;;;;;5028219;28;20340;-77
2023/12/05 08:41:34;;;;;;;;;;;1.60;99.90;;;;;;5002002;28;20682;-77
2023/12/05 08:44:21;;;;;;;;;;;1.60;99.90;;;;;;5001987;28;19984;-77
2023/12/05 08:47:08;;;;;;;;;;;1.60;99.90;;;;;;5010901;28;19917;-77
2023/12/05 08:49:54;;;;;;;;;;;1.70;99.90;;;;;;5013916;28;19918;-77
2023/12/05 08:52:44;;;;;;;;;;;1.70;99.90;;;;;;5005146;28;19909;-77
2023/12/05 08:55:31;;;;;;;;;;;1.70;99.90;;;;;;5016379;28;19909;-77
2023/12/05 08:58:18;;;;;;;;;;;1.70;99.90;;;;;;5007207;28;19944;-77
2023/12/05 09:01:06;;;;;;;;;;;1.80;99.90;;;;;;5015560;28;19921;-77
2023/12/05 09:03:53;;;;;;;;;;;1.70;99.90;;;;;;5015343;28;20366;-77
2023/12/05 09:06:39;;;;;;;;;;;1.70;99.90;;;;;;5016172;28;19971;-77
2023/12/05 09:09:25;;;;;;;;;;;1.80;99.90;;;;;;4994278;28;19917;-77
2023/12/05 09:12:11;;;;;;;;;;;1.80;99.90;;;;;;5028274;28;20322;-78
2023/12/05 09:14:57;;;;;;;;;;;1.80;99.90;;;;;;5020567;28;20447;-77
2023/12/05 09:17:44;;;;;;;;;;;1.80;99.90;;;;;;5001343;28;20294;-77
2023/12/05 09:20:30;;;;;;;;;;;1.80;99.90;;;;;;4988198;28;20389;-77
2023/12/05 09:23:16;;;;;;;;;;;1.80;99.90;;;;;;5014434;28;19920;-77
2023/12/05 09:26:02;;;;;;;;;;;1.80;99.90;;;;;;5019505;28;20214;-77
2023/12/05 09:28:48;;;;;;;;;;;1.90;99.90;;;;;;5012242;28;20337;-77
2023/12/05 09:31:35;;;;;;;;;;;1.80;99.90;;;;;;5021130;28;19910;-77
2023/12/05 09:34:20;;;;;;;;;;;1.80;99.90;;;;;;5006244;28;19960;-77
2023/12/05 09:37:06;;;;;;;;;;;1.90;99.90;;;;;;5006438;28;19909;-77
2023/12/05 09:39:52;;;;;;;;;;;1.90;99.90;;;;;;5004398;28;19921;-76
2023/12/05 09:42:39;;;;;;;;;;;1.90;99.90;;;;;;5025180;28;19920;-77
2023/12/05 09:45:27;;;;;;;;;;;1.90;99.90;;;;;;5011687;28;19939;-76
2023/12/05 09:48:13;;;;;;;;;;;1.90;99.90;;;;;;5019155;28;19917;-76
2023/12/05 09:50:59;;;;;;;;;;;1.90;99.90;;;;;;5017123;28;20360;-76
2023/12/05 09:53:45;;;;;;;;;;;1.90;99.90;;;;;;4984614;28;19920;-76
2023/12/05 09:56:31;;;;;;;;;;;1.90;99.90;;;;;;5003345;28;19921;-76
2023/12/05 09:59:22;;;;;;;;;;;1.90;99.90;;;;;;5005664;28;19922;-76
2023/12/05 10:02:09;;;;;;;;;;;1.90;99.90;;;;;;4994788;28;19910;-77
2023/12/05 10:04:56;;;;;;;;;;;2.00;99.90;;;;;;5032806;28;19924;-77
2023/12/05 10:07:42;;;;;;;;;;;1.90;99.90;;;;;;5014276;28;20000;-76
2023/12/05 10:10:30;;;;;;;;;;;1.90;99.90;;;;;;5012545;28;19910;-76
2023/12/05 10:13:16;;;;;;;;;;;1.90;99.90;;;;;;4994727;28;19917;-76
2023/12/05 10:16:03;;;;;;;;;;;2.00;99.90;;;;;;5011419;28;19913;-75
2023/12/05 10:18:49;;;;;;;;;;;2.00;99.90;;;;;;5000441;28;19910;-74
2023/12/05 10:21:39;;;;;;;;;;;2.00;99.90;;;;;;5003955;28;20225;-76
2023/12/05 10:24:37;;;;;;;;;;;2.00;99.90;;;;;;5011550;28;19913;-76
2023/12/05 10:27:26;;;;;;;;;;;2.00;99.90;;;;;;4999289;28;19921;-77
2023/12/05 10:30:12;;;;;;;;;;;2.10;99.90;;;;;;4984569;28;19972;-76
2023/12/05 10:33:21;;;;;;;;;;;2.10;99.90;;;;;;5006959;28;19925;-76
2023/12/05 10:36:13;;;;;;;;;;;2.10;99.90;;;;;;5012371;28;20306;-76
2023/12/05 10:38:59;;;;;;;;;;;2.10;99.90;;;;;;5013959;28;19971;-76
2023/12/05 10:41:46;;;;;;;;;;;2.20;99.90;;;;;;5009411;28;19910;-76
2023/12/05 10:44:38;;;;;;;;;;;2.20;99.90;;;;;;5003954;28;19923;-76
2023/12/05 10:47:26;;;;;;;;;;;2.20;99.90;;;;;;5016712;28;19912;-76
2023/12/05 10:50:14;;;;;;;;;;;2.20;99.90;;;;;;5017470;28;19948;-76
2023/12/05 10:53:00;;;;;;;;;;;2.30;99.90;;;;;;4997729;28;19910;-75
2023/12/05 10:55:46;;;;;;;;;;;2.30;99.90;;;;;;5002177;28;20002;-75
2023/12/05 10:58:34;;;;;;;;;;;2.30;99.90;;;;;;5003745;28;20356;-75
2023/12/05 11:01:21;;;;;;;;;;;2.30;99.90;;;;;;4986224;28;19945;-76
2023/12/05 11:04:07;;;;;;;;;;;2.30;99.90;;;;;;4985583;28;19949;-76
2023/12/05 11:06:53;;;;;;;;;;;2.30;99.90;;;;;;4980015;28;19945;-76
2023/12/05 11:09:42;;;;;;;;;;;2.30;99.90;;;;;;4982914;28;19920;-76
2023/12/05 11:12:28;;;;;;;;;;;2.40;99.90;;;;;;4971316;28;20696;-77
2023/12/05 11:15:15;;;;;;;;;;;2.40;99.90;;;;;;4977702;28;20215;-76
2023/12/05 11:18:22;;;;;;;;;;;2.40;99.90;;;;;;4998296;28;19922;-76
2023/12/05 11:21:20;;;;;;;;;;;2.40;99.90;;;;;;4997150;28;20357;-76
2023/12/05 11:24:25;;;;;;;;;;;2.40;99.90;;;;;;4964930;28;19918;-76
2023/12/05 11:27:14;;;;;;;;;;;2.50;99.90;;;;;;4978641;28;19910;-77
2023/12/05 11:30:18;;;;;;;;;;;2.50;99.90;;;;;;4977962;28;19921;-76
2023/12/05 11:33:22;;;;;;;;;;;2.50;99.90;;;;;;4978283;28;20006;-77
2023/12/05 11:36:11;;;;;;;;;;;2.50;99.90;;;;;;4971126;28;20907;-77
2023/12/05 11:38:58;;;;;;;;;;;2.50;99.90;;;;;;4995766;28;19913;-75
2023/12/05 11:42:03;;;;;;;;;;;2.60;99.90;;;;;;5001937;28;19910;-75
2023/12/05 11:44:49;;;;;;;;;;;2.60;99.90;;;;;;5006314;28;20348;-75
2023/12/05 11:47:35;;;;;;;;;;;2.60;99.90;;;;;;4989210;28;19909;-75
2023/12/05 11:50:21;;;;;;;;;;;2.60;99.90;;;;;;4988831;28;19917;-76
2023/12/05 11:53:08;;;;;;;;;;;2.60;99.90;;;;;;4989604;28;20499;-76
2023/12/05 11:55:54;;;;;;;;;;;2.60;99.90;;;;;;4970673;28;19917;-75
2023/12/05 11:58:40;;;;;;;;;;;2.60;99.90;;;;;;4996398;28;19998;-75
2023/12/05 12:01:26;;;;;;;;;;;2.60;99.90;;;;;;5032432;28;20360;-76
2023/12/05 12:04:18;;;;;;;;;;;2.60;99.90;;;;;;5016039;28;19948;-76
2023/12/05 12:07:04;;;;;;;;;;;2.70;99.90;;;;;;4991315;28;19910;-76
2023/12/05 12:09:50;;;;;;;;;;;2.60;99.90;;;;;;4987063;28;19916;-76
2023/12/05 12:12:38;;;;;;;;;;;2.70;99.90;;;;;;5015532;28;19909;-76
2023/12/05 12:15:23;;;;;;;;;;;2.60;99.90;;;;;;5015899;28;19909;-76
2023/12/05 12:18:09;;;;;;;;;;;2.60;99.90;;;;;;5002332;28;19952;-77
2023/12/05 12:20:56;;;;;;;;;;;2.60;99.90;;;;;;5002472;28;19909;-76
2023/12/05 12:23:42;;;;;;;;;;;2.60;99.90;;;;;;5015583;28;19913;-76
2023/12/05 12:26:32;;;;;;;;;;;2.70;99.90;;;;;;5022110;28;19921;-76
2023/12/05 12:29:18;;;;;;;;;;;2.70;99.90;;;;;;5010009;28;20333;-77
2023/12/05 12:32:12;;;;;;;;;;;2.60;99.90;;;;;;5009100;28;20294;-77
2023/12/05 12:34:59;;;;;;;;;;;2.60;99.90;;;;;;5015624;28;19921;-76
2023/12/05 12:37:45;;;;;;;;;;;2.60;99.90;;;;;;5028990;28;19908;-77
2023/12/05 12:40:33;;;;;;;;;;;2.70;99.90;;;;;;5022056;28;19909;-76
2023/12/05 12:43:19;;;;;;;;;;;2.60;99.90;;;;;;5005610;28;19909;-77
2023/12/05 12:46:05;;;;;;;;;;;2.60;99.90;;;;;;5003627;28;19914;-77
2023/12/05 12:48:51;;;;;;;;;;;2.60;99.90;;;;;;5016753;28;19910;-77
2023/12/05 12:51:38;;;;;;;;;;;2.60;99.90;;;;;;5007698;28;19913;-76
2023/12/05 12:54:25;;;;;;;;;;;2.60;99.90;;;;;;5007323;28;20243;-77
2023/12/05 12:57:11;;;;;;;;;;;2.70;99.90;;;;;;5015200;28;20364;-77
2023/12/05 12:59:57;;;;;;;;;;;2.70;99.90;;;;;;5002483;28;19922;-77
2023/12/05 13:02:43;;;;;;;;;;;2.60;99.90;;;;;;5009041;28;19945;-76
2023/12/05 13:05:33;;;;;;;;;;;2.70;99.90;;;;;;5012375;28;19992;-77
2023/12/05 13:08:18;;;;;;;;;;;2.70;99.90;;;;;;5014847;28;20369;-77
2023/12/05 13:11:04;;;;;;;;;;;2.70;99.90;;;;;;5001425;28;19996;-77
2023/12/05 13:13:50;;;;;;;;;;;2.70;99.90;;;;;;5021557;28;19916;-77
2023/12/05 13:16:37;;;;;;;;;;;2.70;99.90;;;;;;4989160;28;19921;-77
2023/12/05 13:19:30;;;;;;;;;;;2.70;99.90;;;;;;4998146;28;19923;-76
2023/12/05 13:22:18;;;;;;;;;;;2.70;99.90;;;;;;5015863;28;19909;-77
2023/12/05 13:25:04;;;;;;;;;;;2.70;99.90;;;;;;4996427;28;19917;-77
2023/12/05 13:27:50;;;;;;;;;;;2.70;99.90;;;;;;4994381;28;19918;-77
2023/12/05 13:30:36;;;;;;;;;;;2.70;99.90;;;;;;5012556;28;19917;-77
2023/12/05 13:33:23;;;;;;;;;;;2.80;99.90;;;;;;5012653;28;19914;-77
2023/12/05 13:36:09;;;;;;;;;;;2.80;99.90;;;;;;5014817;28;19909;-77
2023/12/05 13:38:55;;;;;;;;;;;2.80;99.90;;;;;;5016482;28;19909;-78
2023/12/05 13:41:41;;;;;;;;;;;2.80;99.90;;;;;;5030816;28;19920;-77
2023/12/05 13:44:27;;;;;;;;;;;2.80;99.90;;;;;;5019298;28;19951;-77
2023/12/05 13:47:14;;;;;;;;;;;2.80;99.90;;;;;;5001253;28;19996;-77
2023/12/05 13:50:00;;;;;;;;;;;2.80;99.90;;;;;;5000891;28;19916;-77
2023/12/05 13:52:46;;;;;;;;;;;2.80;99.90;;;;;;5015473;28;20310;-77
2023/12/05 13:55:32;;;;;;;;;;;2.80;99.90;;;;;;5014130;28;19909;-77
2023/12/05 13:58:18;;;;;;;;;;;2.80;99.90;;;;;;5000477;28;19921;-77
2023/12/05 14:01:04;;;;;;;;;;;2.80;99.90;;;;;;5000884;28;19952;-77
2023/12/05 14:03:50;;;;;;;;;;;2.80;99.90;;;;;;5014258;28;20401;-76
2023/12/05 14:06:36;;;;;;;;;;;2.80;99.90;;;;;;4996224;28;19917;-77
2023/12/05 14:09:21;;;;;;;;;;;2.90;99.90;;;;;;4994616;28;19913;-77
2023/12/05 14:12:11;;;;;;;;;;;2.90;99.90;;;;;;4994852;28;19921;-77
2023/12/05 14:14:57;;;;;;;;;;;2.80;99.90;;;;;;4986710;28;20053;-76
2023/12/05 14:17:44;;;;;;;;;;;2.80;99.90;;;;;;4964849;28;20204;-77
2023/12/05 14:20:30;;;;;;;;;;;2.90;99.90;;;;;;4990870;28;20330;-77
2023/12/05 14:23:18;;;;;;;;;;;2.80;99.90;;;;;;4987023;28;20311;-77
2023/12/05 14:26:04;;;;;;;;;;;2.90;99.90;;;;;;4998813;28;20004;-77
2023/12/05 14:28:51;;;;;;;;;;;2.80;99.90;;;;;;4967473;28;19910;-77
2023/12/05 14:31:37;;;;;;;;;;;2.80;99.90;;;;;;4978334;28;19914;-77
2023/12/05 14:34:23;;;;;;;;;;;2.90;99.90;;;;;;4979700;28;19921;-77
2023/12/05 14:37:09;;;;;;;;;;;2.80;99.90;;;;;;4997142;28;19921;-76
2023/12/05 14:39:55;;;;;;;;;;;2.80;99.90;;;;;;4992627;28;19956;-77
2023/12/05 14:42:41;;;;;;;;;;;2.80;99.90;;;;;;4973364;28;19957;-77
2023/12/05 14:45:27;;;;;;;;;;;2.90;99.90;;;;;;4997074;28;20311;-77
2023/12/05 14:48:13;;;;;;;;;;;2.80;99.90;;;;;;4985365;28;20215;-77
2023/12/05 14:50:59;;;;;;;;;;;2.80;99.90;;;;;;5004446;28;19920;-77
2023/12/05 14:53:45;;;;;;;;;;;2.80;99.90;;;;;;5004637;28;20313;-76
2023/12/05 14:56:32;;;;;;;;;;;2.80;99.90;;;;;;5001284;28;20445;-80
2023/12/05 14:59:18;;;;;;;;;;;2.80;99.90;;;;;;5017659;28;19917;-76
2023/12/05 15:02:04;;;;;;;;;;;2.80;99.90;;;;;;5003951;28;19909;-79
2023/12/05 15:04:50;;;;;;;;;;;2.80;99.90;;;;;;5004295;28;19913;-79
2023/12/05 15:07:36;;;;;;;;;;;2.70;99.90;;;;;;5003579;28;19944;-76
2023/12/05 15:10:22;;;;;;;;;;;2.70;99.90;;;;;;5017867;28;19910;-77
2023/12/05 15:13:09;;;;;;;;;;;2.70;99.90;;;;;;5016449;28;19924;-79
2023/12/05 15:15:55;;;;;;;;;;;2.70;99.90;;;;;;5004325;28;19949;-76
2023/12/05 15:18:42;;;;;;;;;;;2.70;99.90;;;;;;5010657;28;19910;-77
2023/12/05 15:21:28;;;;;;;;;;;2.70;99.90;;;;;;4997708;28;19913;-77
2023/12/05 15:24:14;;;;;;;;;;;2.70;99.90;;;;;;5034580;28;19918;-78
2023/12/05 15:27:02;;;;;;;;;;;2.70;99.90;;;;;;5001747;28;19909;-76
2023/12/05 15:29:48;;;;;;;;;;;2.70;99.90;;;;;;5014963;28;19917;-80
2023/12/05 15:32:34;;;;;;;;;;;2.70;99.90;;;;;;5016595;28;19992;-79
2023/12/05 15:35:21;;;;;;;;;;;2.70;99.90;;;;;;5017452;28;19909;-80
2023/12/05 15:38:07;;;;;;;;;;;2.70;99.90;;;;;;5017034;28;20380;-77
2023/12/05 15:40:53;;;;;;;;;;;2.70;99.90;;;;;;5016063;28;20238;-79
2023/12/05 15:43:40;;;;;;;;;;;2.70;99.90;;;;;;5015770;28;19909;-78
2023/12/05 15:46:27;;;;;;;;;;;2.70;99.90;;;;;;5016766;28;19964;-79
2023/12/05 15:49:13;;;;;;;;;;;2.70;99.90;;;;;;5018593;28;20332;-78
2023/12/05 15:51:59;;;;;;;;;;;2.70;99.90;;;;;;5017645;28;19996;-77
2023/12/05 15:54:46;;;;;;;;;;;2.70;99.90;;;;;;5016671;28;19909;-79
2023/12/05 15:57:34;;;;;;;;;;;2.70;99.90;;;;;;5031179;28;19917;-76
2023/12/05 16:00:20;;;;;;;;;;;2.70;99.90;;;;;;4998298;28;19920;-76
2023/12/05 16:03:06;;;;;;;;;;;2.70;99.90;;;;;;5001307;28;20345;-77
2023/12/05 16:05:53;;;;;;;;;;;2.70;99.90;;;;;;5008798;28;19918;-77
2023/12/05 16:08:38;;;;;;;;;;;2.60;99.90;;;;;;5009648;28;19919;-76
2023/12/05 16:11:24;;;;;;;;;;;2.70;99.90;;;;;;5003895;28;19916;-76
2023/12/05 16:14:15;;;;;;;;;;;2.70;99.90;;;;;;4990120;28;20281;-76
2023/12/05 16:17:01;;;;;;;;;;;2.70;99.90;;;;;;5016324;28;19924;-75
2023/12/05 16:19:48;;;;;;;;;;;2.70;99.90;;;;;;5023441;28;19928;-75
2023/12/05 16:22:34;;;;;;;;;;;2.70;99.90;;;;;;5014227;28;19921;-75
2023/12/05 16:25:20;;;;;;;;;;;2.70;99.90;;;;;;5001745;28;19917;-75